»·PEaware :: N512PC KBUR-KLAS

N512PC :: KBUR-KLAS

FLIGHT INFORMATION

Flight Status: Arrived
Operator: Privately registered:
United States
More flights under this callsign
Pilot: Jacob V. (20481)
Aircraft: BEECH AIRCRAFT BARON
(BE58)
More flights by this aircraft type
Origin: KBUR Bob Hope-Burbank
United States
Destination: KLAS McCarran Intl
United States
More flights between these airports :: More routes between these airports
Route: +VNY3 DAG CRESO4
File this flight plan on PilotEdge
Remarks: I-5 attempt
Altitude:
(Current/Filed)
10,000ft
Speed:
(Current/Filed)
160kts
Departed: 04-Oct-18 10:53 AM
Arrived: 04-Oct-18 12:21 PM
Distance/Time
Traveled:
193nm/1:28
Distance/Time
To Go:
Arrived

Flight Plot

Page will automatically refresh every two minutes.

Flight plan parsing failed; only flown route is shown


Map Options




Map Legend


Flown Route
Filed Route
Departure Airport
Arrival Airport
Navaid (VOR, NDB)
Fix

Horizontal Profiles

Position Reports

Time Latitude Longitude Heading Altitude Ground
Speed
04-Oct-18 10:29 34.200203 -118.358745 263 720ft 0kts
04-Oct-18 10:30 34.200203 -118.358745 263 720ft 0kts
04-Oct-18 10:31 34.200203 -118.358745 263 720ft 0kts
04-Oct-18 10:32 34.200203 -118.358745 263 720ft 0kts
04-Oct-18 10:33 34.200203 -118.358745 263 720ft 0kts
04-Oct-18 10:34 34.200203 -118.358745 263 720ft 0kts
04-Oct-18 10:35 34.200203 -118.358745 263 720ft 0kts
04-Oct-18 10:36 34.200203 -118.358745 263 720ft 0kts
04-Oct-18 10:37 34.200203 -118.358745 263 720ft 0kts
04-Oct-18 10:38 34.200203 -118.358745 263 720ft 0kts
04-Oct-18 10:39 34.200203 -118.358745 263 720ft 0kts
04-Oct-18 10:40 34.200203 -118.358745 263 720ft 0kts
04-Oct-18 10:41 34.200203 -118.358746 263 720ft 0kts
04-Oct-18 10:42 34.200203 -118.358746 263 720ft 0kts
04-Oct-18 10:43 34.200203 -118.358746 263 720ft 0kts
04-Oct-18 10:44 34.200203 -118.358746 263 720ft 0kts
04-Oct-18 10:45 34.200203 -118.358746 263 720ft 0kts
04-Oct-18 10:46 34.200729 -118.359316 339 723ft 13kts
04-Oct-18 10:47 34.203727 -118.359239 346 734ft 14kts
04-Oct-18 10:48 34.208353 -118.360530 346 751ft 20kts
04-Oct-18 10:49 34.209604 -118.360714 39 759ft 0kts
04-Oct-18 10:50 34.209604 -118.360714 39 759ft 0kts
04-Oct-18 10:51 34.209604 -118.360714 39 759ft 0kts
04-Oct-18 10:52 34.209604 -118.360714 39 759ft 0kts
04-Oct-18 10:53 34.209604 -118.360714 39 759ft 0kts
04-Oct-18 10:54 34.209672 -118.359919 107 759ft 12kts
04-Oct-18 10:55 34.194765 -118.355529 167 1240ft 106kts
04-Oct-18 10:56 34.169852 -118.356516 228 2297ft 101kts
04-Oct-18 10:57 34.150182 -118.381015 226 3034ft 104kts
04-Oct-18 10:58 34.130379 -118.405876 225 3569ft 114kts
04-Oct-18 10:59 34.111311 -118.436329 271 4778ft 126kts
04-Oct-18 11:00 34.136940 -118.449793 352 5925ft 132kts
04-Oct-18 11:01 34.170537 -118.451421 358 6862ft 142kts
04-Oct-18 11:02 34.208999 -118.448839 5 7673ft 152kts
04-Oct-18 11:03 34.248226 -118.454665 338 8363ft 157kts
04-Oct-18 11:04 34.290297 -118.462225 358 8978ft 159kts
04-Oct-18 11:05 34.334899 -118.461642 359 9039ft 172kts
04-Oct-18 11:06 34.377060 -118.456082 30 9716ft 149kts
04-Oct-18 11:07 34.400996 -118.422156 49 10652ft 136kts
04-Oct-18 11:08 34.424836 -118.385584 50 11064ft 166kts
04-Oct-18 11:09 34.454216 -118.340042 50 11048ft 186kts
04-Oct-18 11:10 34.485533 -118.291361 51 11036ft 188kts
04-Oct-18 11:11 34.517926 -118.240803 51 11032ft 191kts
04-Oct-18 11:12 34.550466 -118.190045 51 11021ft 192kts
04-Oct-18 11:13 34.582409 -118.140163 51 11018ft 192kts
04-Oct-18 11:14 34.614710 -118.089690 51 11020ft 192kts
04-Oct-18 11:15 34.642001 -118.034893 74 11019ft 192kts
04-Oct-18 11:16 34.650076 -117.971676 93 11033ft 191kts
04-Oct-18 11:17 34.659246 -117.909001 59 10997ft 193kts
04-Oct-18 11:18 34.675517 -117.849114 92 11001ft 191kts
04-Oct-18 11:19 34.680450 -117.784905 80 11002ft 192kts
04-Oct-18 11:20 34.693000 -117.721798 75 11010ft 192kts
04-Oct-18 11:21 34.703601 -117.658473 77 11019ft 191kts
04-Oct-18 11:22 34.716552 -117.596263 73 11030ft 191kts
04-Oct-18 11:23 34.731140 -117.534450 73 11029ft 191kts
04-Oct-18 11:24 34.746282 -117.472321 72 11028ft 191kts
04-Oct-18 11:25 34.761498 -117.410326 72 11029ft 191kts
04-Oct-18 11:26 34.774064 -117.358527 72 11031ft 191kts
04-Oct-18 11:27 34.790780 -117.289195 73 11023ft 191kts
04-Oct-18 11:28 34.805939 -117.227016 73 11015ft 191kts
04-Oct-18 11:29 34.821095 -117.164875 73 11003ft 192kts
04-Oct-18 11:30 34.833802 -117.112705 73 10992ft 192kts
04-Oct-18 11:31 34.848980 -117.050350 74 10984ft 193kts
04-Oct-18 11:32 34.866589 -116.977644 74 10978ft 193kts
04-Oct-18 11:33 34.879174 -116.925463 74 10976ft 192kts
04-Oct-18 11:34 34.894169 -116.863176 75 10976ft 192kts
04-Oct-18 11:35 34.911711 -116.790113 74 10976ft 192kts
04-Oct-18 11:36 34.924175 -116.738078 75 10976ft 192kts
04-Oct-18 11:37 34.939141 -116.675420 74 10977ft 192kts
04-Oct-18 11:38 34.954025 -116.613012 74 11014ft 192kts
04-Oct-18 11:39 34.972589 -116.552180 60 11017ft 193kts
04-Oct-18 11:40 34.997867 -116.494322 61 11021ft 193kts
04-Oct-18 11:41 35.023073 -116.436507 62 11027ft 193kts
04-Oct-18 11:42 35.048074 -116.378253 62 11033ft 193kts
04-Oct-18 11:43 35.072267 -116.320897 63 11030ft 193kts
04-Oct-18 11:44 35.096852 -116.262615 63 11030ft 193kts
04-Oct-18 11:45 35.121488 -116.205211 62 11029ft 193kts
04-Oct-18 11:46 35.146311 -116.147008 63 11030ft 196kts
04-Oct-18 11:47 35.171524 -116.087573 63 11029ft 198kts
04-Oct-18 11:48 35.196858 -116.027731 63 11030ft 198kts
04-Oct-18 11:49 35.222096 -115.967980 63 11030ft 199kts
04-Oct-18 11:50 35.247390 -115.907988 63 11030ft 199kts
04-Oct-18 11:51 35.275142 -115.850322 62 11028ft 198kts
04-Oct-18 11:52 35.306901 -115.795039 54 11003ft 200kts
04-Oct-18 11:53 35.340770 -115.737215 50 10453ft 215kts
04-Oct-18 11:54 35.379773 -115.682062 47 10066ft 209kts
04-Oct-18 11:55 35.424075 -115.642715 18 10067ft 198kts
04-Oct-18 11:56 35.463764 -115.596702 48 10067ft 198kts
04-Oct-18 11:57 35.500340 -115.546109 47 10068ft 198kts
04-Oct-18 11:58 35.537534 -115.495186 47 9830ft 208kts
04-Oct-18 11:59 35.574710 -115.444013 47 10051ft 190kts
04-Oct-18 12:00 35.612873 -115.391803 47 9367ft 217kts
04-Oct-18 12:01 35.650998 -115.339438 48 8357ft 206kts
04-Oct-18 12:02 35.687063 -115.289647 48 7378ft 204kts
04-Oct-18 12:03 35.720900 -115.243134 48 7058ft 171kts
04-Oct-18 12:04 35.751145 -115.201626 48 7071ft 168kts
04-Oct-18 12:05 35.783560 -115.158937 31 7061ft 172kts
04-Oct-18 12:06 35.826645 -115.135675 21 7060ft 173kts
04-Oct-18 12:07 35.868711 -115.113953 21 7058ft 174kts
04-Oct-18 12:08 35.910625 -115.092463 21 7062ft 188kts
04-Oct-18 12:09 35.957747 -115.068539 21 7054ft 199kts
04-Oct-18 12:10 36.002233 -115.046087 21 7051ft 201kts
04-Oct-18 12:11 36.051136 -115.021764 21 7044ft 202kts
04-Oct-18 12:12 36.101218 -114.997509 21 6533ft 208kts
04-Oct-18 12:13 36.152424 -114.973499 21 5707ft 198kts
04-Oct-18 12:14 36.198887 -114.959885 345 5514ft 171kts
04-Oct-18 12:15 36.220541 -115.001895 282 5525ft 174kts
04-Oct-18 12:16 36.230038 -115.049615 282 5510ft 136kts
04-Oct-18 12:17 36.218557 -115.083340 220 5003ft 131kts
04-Oct-18 12:18 36.195257 -115.101524 203 4209ft 120kts
04-Oct-18 12:19 36.169476 -115.115855 204 3547ft 114kts
04-Oct-18 12:20 36.146380 -115.129328 204 3250ft 113kts
04-Oct-18 12:21 36.123578 -115.142548 204 2716ft 110kts
04-Oct-18 12:22 36.100230 -115.156041 205 2193ft 105kts
04-Oct-18 12:23 36.084837 -115.165207 218 2143ft 26kts
04-Oct-18 12:24 36.083770 -115.166661 238 2151ft 0kts
04-Oct-18 12:25 36.082078 -115.168904 203 2162ft 14kts

Navigation Log

Ident Type
Flight plan parsing failed, navigation log unavailable